Time;durP1;ratioP1;P1;durP2;ratioP2;P2;SDS_P1;SDS_P2;PMS_P1;PMS_P2;Temp;Humidity;BMP_temperature;BMP_pressure;BME280_temperature;BME280_humidity;BME280_pressure;Samples;Min_cycle;Max_cycle;Signal;HPM_P1;HPM_P2
2022/03/09 00:00:36;;;;;;;18.38;10.25;;;0.10;53.60;;;;;;5067998;28;20242;-84
2022/03/09 00:03:03;;;;;;;17.33;10.18;;;;;;;;;;5067397;28;20231;-84
2022/03/09 00:05:30;;;;;;;14.32;8.57;;;0.00;53.70;;;;;;5068014;28;20282;-84
2022/03/09 00:07:57;;;;;;;14.73;9.90;;;0.00;54.00;;;;;;5066613;28;20203;-85
2022/03/09 00:10:25;;;;;;;17.02;9.90;;;0.10;69.20;;;;;;5067782;28;20282;-84
2022/03/09 00:12:53;;;;;;;14.27;9.40;;;0.00;53.80;;;;;;5067253;28;20195;-84
2022/03/09 00:15:20;;;;;;;14.55;9.43;;;0.00;68.20;;;;;;5058411;28;20834;-84
2022/03/09 00:17:47;;;;;;;14.57;8.25;;;0.00;54.10;;;;;;5066754;28;20306;-84
2022/03/09 00:20:14;;;;;;;13.57;9.90;;;;;;;;;;5067567;28;20261;-84
2022/03/09 00:22:41;;;;;;;16.60;9.93;;;0.00;53.70;;;;;;5067278;28;20205;-84
2022/03/09 00:25:08;;;;;;;13.35;8.75;;;0.00;54.00;;;;;;5061026;28;20324;-84
2022/03/09 00:27:36;;;;;;;11.73;8.68;;;0.00;70.20;;;;;;5066662;28;20888;-84
2022/03/09 00:30:04;;;;;;;14.70;9.98;;;-0.10;54.10;;;;;;5067227;28;20274;-84
2022/03/09 00:32:32;;;;;;;15.13;9.02;;;-0.10;54.10;;;;;;5071026;28;20210;-84
2022/03/09 00:34:59;;;;;;;13.88;9.30;;;;;;;;;;5071036;28;20309;-85
2022/03/09 00:37:26;;;;;;;12.25;9.05;;;-0.10;53.80;;;;;;5070969;28;20227;-84
2022/03/09 00:39:52;;;;;;;16.92;10.52;;;-0.10;54.30;;;;;;5069292;28;20207;-84
2022/03/09 00:42:20;;;;;;;14.75;9.70;;;;;;;;;;5065688;28;20199;-84
2022/03/09 00:44:48;;;;;;;11.73;8.13;;;-0.40;70.40;;;;;;5066255;28;20281;-84
2022/03/09 00:47:15;;;;;;;14.10;8.85;;;;;;;;;;5064887;28;20653;-84
2022/03/09 00:49:42;;;;;;;12.68;9.15;;;-0.20;54.30;;;;;;5069842;28;21058;-84
2022/03/09 00:52:09;;;;;;;20.45;10.30;;;-0.20;54.60;;;;;;5071211;28;20199;-84
2022/03/09 00:54:35;;;;;;;11.75;9.43;;;-0.30;54.90;;;;;;5071052;28;20333;-84
2022/03/09 00:57:03;;;;;;;19.08;9.90;;;-0.30;72.20;;;;;;5070632;28;20231;-84
2022/03/09 00:59:29;;;;;;;13.07;9.43;;;-0.30;55.30;;;;;;5070838;28;20261;-84
2022/03/09 01:01:58;;;;;;;12.77;9.40;;;-0.40;55.40;;;;;;5070926;28;20294;-84
2022/03/09 01:04:25;;;;;;;17.15;10.00;;;-0.40;55.50;;;;;;5070454;28;20213;-84
2022/03/09 01:06:51;;;;;;;17.42;9.77;;;-0.30;55.30;;;;;;5071040;28;20239;-84
2022/03/09 01:09:19;;;;;;;14.27;8.77;;;-0.30;55.10;;;;;;5070836;28;20206;-84
2022/03/09 01:11:47;;;;;;;16.52;10.13;;;-0.40;55.30;;;;;;5049922;28;20207;-84
2022/03/09 01:14:16;;;;;;;14.07;9.65;;;-0.30;55.50;;;;;;5066746;28;20269;-84
2022/03/09 01:16:43;;;;;;;13.15;9.75;;;;;;;;;;5070831;28;20679;-84
2022/03/09 01:19:12;;;;;;;14.95;10.02;;;-0.40;55.00;;;;;;5070396;28;20554;-83
2022/03/09 01:21:40;;;;;;;12.57;8.23;;;;;;;;;;5064081;28;20219;-83
2022/03/09 01:24:08;;;;;;;17.00;10.45;;;-0.50;54.90;;;;;;5070231;28;20199;-83
2022/03/09 01:26:37;;;;;;;10.45;9.07;;;-0.50;55.40;;;;;;5069899;28;20326;-84
2022/03/09 01:29:06;;;;;;;13.00;8.73;;;-0.50;55.80;;;;;;5069924;28;20195;-83
2022/03/09 01:31:34;;;;;;;10.90;8.95;;;;;;;;;;5054419;28;20771;-84
2022/03/09 01:34:03;;;;;;;12.20;8.68;;;;;;;;;;5070540;28;20651;-84
2022/03/09 01:36:31;;;;;;;14.50;9.55;;;-0.80;56.10;;;;;;5070464;28;20217;-84
2022/03/09 01:38:59;;;;;;;12.80;9.50;;;;;;;;;;5070503;28;20218;-83
2022/03/09 01:41:26;;;;;;;14.02;9.38;;;;;;;;;;5064033;28;20302;-83
2022/03/09 01:44:07;;;;;;;13.02;8.70;;;-0.70;55.90;;;;;;5070755;28;20196;-83
2022/03/09 01:46:35;;;;;;;17.55;9.20;;;-0.80;56.10;;;;;;5061494;28;20291;-84
2022/03/09 01:49:02;;;;;;;15.38;8.98;;;-0.80;56.50;;;;;;5058535;28;20594;-84
2022/03/09 01:51:29;;;;;;;10.80;8.38;;;;;;;;;;5055712;28;20208;-84
2022/03/09 01:53:57;;;;;;;12.45;10.05;;;-1.00;56.70;;;;;;5069893;28;20298;-84
2022/03/09 01:56:24;;;;;;;13.40;9.35;;;-1.00;57.00;;;;;;5070496;28;20553;-84
2022/03/09 01:58:51;;;;;;;12.85;9.68;;;0.50;58.20;;;;;;5070442;28;20589;-83
2022/03/09 02:01:18;;;;;;;13.55;9.55;;;-1.00;65.80;;;;;;5070252;28;20218;-83
2022/03/09 02:03:45;;;;;;;11.30;8.80;;;-1.00;57.00;;;;;;5068553;28;20284;-83
2022/03/09 02:06:12;;;;;;;11.15;9.20;;;-1.00;57.10;;;;;;5069775;28;20191;-83
2022/03/09 02:11:27;;;;;;;10.25;8.00;;;-0.90;56.60;;;;;;5070546;28;20203;-84
2022/03/09 02:13:55;;;;;;;11.65;8.73;;;;;;;;;;5069734;28;20658;-84
2022/03/09 02:16:23;;;;;;;22.00;9.63;;;-1.00;56.30;;;;;;5063175;28;20276;-83
2022/03/09 02:18:50;;;;;;;16.15;8.65;;;-1.10;57.20;;;;;;5070134;28;20226;-84
2022/03/09 02:21:21;;;;;;;12.40;8.30;;;-1.10;76.50;;;;;;5070209;28;20195;-84
2022/03/09 02:23:50;;;;;;;15.45;8.95;;;-1.00;77.10;;;;;;5069852;28;20215;-84
2022/03/09 02:26:18;;;;;;;13.25;8.27;;;-1.10;76.30;;;;;;5069209;28;20207;-83
2022/03/09 02:28:48;;;;;;;14.70;8.57;;;-1.20;57.40;;;;;;5070213;28;20206;-83
2022/03/09 02:31:16;;;;;;;9.90;7.80;;;-1.10;57.20;;;;;;5069469;28;20222;-84
2022/03/09 02:33:45;;;;;;;10.82;8.95;;;-1.10;56.90;;;;;;5069137;28;20604;-83
2022/03/09 02:36:12;;;;;;;9.40;8.15;;;-1.30;66.40;;;;;;5069526;28;20572;-83
2022/03/09 02:38:39;;;;;;;11.48;7.65;;;-1.20;57.20;;;;;;5069920;28;20211;-83
2022/03/09 02:41:08;;;;;;;9.65;8.55;;;-1.30;57.50;;;;;;5063452;28;20231;-83
2022/03/09 02:43:35;;;;;;;13.95;8.57;;;-1.30;57.70;;;;;;5069462;28;20203;-83
2022/03/09 02:46:02;;;;;;;9.75;8.50;;;;;;;;;;5068658;28;20241;-84
2022/03/09 02:48:29;;;;;;;10.73;8.30;;;-1.40;57.90;;;;;;5057936;28;20565;-84
2022/03/09 02:50:56;;;;;;;13.50;8.10;;;-0.60;58.60;;;;;;5069344;28;20211;-84
2022/03/09 02:53:23;;;;;;;13.05;8.80;;;-1.30;57.80;;;;;;5068214;28;20229;-83
2022/03/09 02:55:50;;;;;;;8.82;6.18;;;-1.20;57.80;;;;;;5070059;28;20223;-83
2022/03/09 02:58:18;;;;;;;9.65;6.93;;;-0.80;76.60;;;;;;5068359;28;20582;-83
2022/03/09 03:00:46;;;;;;;10.55;7.57;;;;;;;;;;5068805;28;20253;-83
2022/03/09 03:03:13;;;;;;;9.23;7.78;;;;;;;;;;5068830;28;20265;-83
2022/03/09 03:05:40;;;;;;;9.13;6.72;;;-1.30;57.60;;;;;;5069562;28;20209;-83
2022/03/09 03:08:07;;;;;;;14.50;7.90;;;-1.20;58.50;;;;;;5068841;28;20204;-83
2022/03/09 03:10:34;;;;;;;9.65;7.43;;;-1.40;58.40;;;;;;5062280;28;20672;-83
2022/03/09 03:13:01;;;;;;;10.95;8.82;;;;;;;;;;5069005;28;20260;-83
2022/03/09 03:15:29;;;;;;;15.48;7.75;;;-1.30;58.00;;;;;;5069006;28;20219;-83
2022/03/09 03:17:56;;;;;;;10.98;6.57;;;-1.20;58.30;;;;;;5068759;28;20383;-83
2022/03/09 03:20:23;;;;;;;13.45;8.13;;;;;;;;;;5068978;28;20203;-84
2022/03/09 03:22:50;;;;;;;9.80;6.13;;;;;;;;;;5069138;28;20211;-83
2022/03/09 03:25:17;;;;;;;11.48;6.78;;;-1.10;77.00;;;;;;5068817;28;20222;-83
2022/03/09 03:27:44;;;;;;;16.65;8.25;;;-1.20;58.10;;;;;;5069537;28;20203;-84
2022/03/09 03:30:12;;;;;;;12.88;8.00;;;0.80;59.60;;;;;;5070136;28;20215;-83
2022/03/09 03:32:40;;;;;;;12.43;7.57;;;-1.30;58.30;;;;;;5069271;28;20231;-84
2022/03/09 03:35:08;;;;;;;9.77;7.18;;;-1.30;58.20;;;;;;5068271;28;20255;-83
2022/03/09 03:37:35;;;;;;;10.70;7.47;;;-1.30;58.00;;;;;;5067852;28;20289;-83
2022/03/09 03:40:02;;;;;;;10.40;7.20;;;;;;;;;;5068801;28;20218;-84
2022/03/09 03:42:29;;;;;;;8.30;6.13;;;-1.20;57.60;;;;;;5068126;28;20227;-83
2022/03/09 03:44:56;;;;;;;9.20;6.63;;;-1.20;58.20;;;;;;5068612;28;20252;-83
2022/03/09 03:47:23;;;;;;;11.18;8.40;;;-1.40;58.60;;;;;;5067384;28;20591;-83
2022/03/09 03:49:51;;;;;;;12.20;7.18;;;-1.40;58.40;;;;;;5064034;28;20633;-83
2022/03/09 03:52:18;;;;;;;9.68;6.50;;;-1.40;77.90;;;;;;5068457;28;20276;-82
2022/03/09 03:54:45;;;;;;;10.00;6.70;;;-1.40;58.30;;;;;;5067946;28;20662;-83
2022/03/09 03:57:12;;;;;;;12.50;7.75;;;-1.50;58.20;;;;;;5067516;28;20256;-83
2022/03/09 03:59:39;;;;;;;14.55;7.82;;;;;;;;;;5068270;28;20203;-83
2022/03/09 04:02:06;;;;;;;11.63;7.10;;;-1.40;58.00;;;;;;5068275;28;20283;-83
2022/03/09 04:04:33;;;;;;;12.25;6.45;;;-1.30;58.90;;;;;;5067299;28;20666;-83
2022/03/09 04:07:01;;;;;;;7.72;6.40;;;-1.40;58.30;;;;;;5060993;28;20304;-83
2022/03/09 04:09:28;;;;;;;11.52;7.03;;;-1.50;58.80;;;;;;5067774;28;20234;-83
2022/03/09 04:11:55;;;;;;;13.50;7.80;;;-1.40;58.70;;;;;;5055231;28;20462;-83
2022/03/09 04:14:22;;;;;;;10.18;6.70;;;;;;;;;;5068293;28;20235;-83
2022/03/09 04:16:49;;;;;;;12.13;7.35;;;-1.40;79.00;;;;;;5067258;28;20323;-84
2022/03/09 04:19:16;;;;;;;10.50;7.10;;;-1.50;59.00;;;;;;5068091;28;20276;-83
2022/03/09 04:21:43;;;;;;;12.50;6.88;;;-1.50;58.80;;;;;;5067836;28;20211;-83
2022/03/09 04:24:12;;;;;;;13.43;7.10;;;-1.50;58.70;;;;;;5067608;28;20741;-83
2022/03/09 04:26:39;;;;;;;10.50;7.70;;;;;;;;;;5067625;28;20221;-83
2022/03/09 04:29:06;;;;;;;10.40;7.30;;;-1.60;78.40;;;;;;5067112;28;20199;-83
2022/03/09 04:31:33;;;;;;;8.98;6.13;;;-1.50;58.50;;;;;;5068360;28;20306;-83
2022/03/09 04:34:00;;;;;;;14.30;9.20;;;-1.50;58.50;;;;;;5057118;28;20290;-83
2022/03/09 04:36:27;;;;;;;12.05;6.40;;;-1.50;58.50;;;;;;5051273;28;20243;-83
2022/03/09 04:38:53;;;;;;;8.82;7.07;;;-1.50;58.40;;;;;;5067764;28;20203;-83
2022/03/09 04:41:23;;;;;;;9.93;7.88;;;-1.50;58.20;;;;;;5067072;28;20272;-83
2022/03/09 04:43:50;;;;;;;10.75;6.68;;;;;;;;;;5066961;28;20285;-83
2022/03/09 04:46:18;;;;;;;13.10;7.85;;;;;;;;;;5067266;28;20612;-83
2022/03/09 04:48:45;;;;;;;11.82;7.30;;;;;;;;;;5059178;28;20823;-83
2022/03/09 04:51:12;;;;;;;16.08;8.90;;;-1.50;58.10;;;;;;5067647;28;20294;-83
2022/03/09 04:53:39;;;;;;;10.20;7.13;;;;;;;;;;5068631;28;20212;-83
2022/03/09 04:56:06;;;;;;;13.57;8.30;;;-1.60;58.40;;;;;;5067310;28;20618;-83
2022/03/09 04:58:34;;;;;;;11.20;6.97;;;-1.60;58.80;;;;;;5067457;28;20204;-83
2022/03/09 05:01:01;;;;;;;11.18;7.55;;;;;;;;;;5061890;28;20233;-83
2022/03/09 05:03:28;;;;;;;11.90;7.45;;;-1.50;58.20;;;;;;5067926;28;20288;-83
2022/03/09 05:05:55;;;;;;;16.58;8.85;;;-1.60;69.30;;;;;;5062389;28;21489;-84
2022/03/09 05:08:22;;;;;;;9.90;7.97;;;-1.50;58.70;;;;;;5058690;28;20242;-83
2022/03/09 05:10:49;;;;;;;16.15;8.20;;;-1.50;58.70;;;;;;5065732;28;20256;-83
2022/03/09 05:13:16;;;;;;;23.80;8.95;;;-1.40;58.60;;;;;;5064573;28;20203;-83
2022/03/09 05:15:44;;;;;;;10.30;7.63;;;-1.50;58.50;;;;;;5066888;28;20242;-83
2022/03/09 05:18:11;;;;;;;15.88;7.75;;;-1.50;58.70;;;;;;5068372;28;20203;-84
2022/03/09 05:20:38;;;;;;;7.72;6.80;;;-1.60;58.60;;;;;;5071473;28;20207;-83
2022/03/09 05:23:05;;;;;;;14.35;7.88;;;;;;;;;;5071269;28;20195;-83
2022/03/09 05:25:32;;;;;;;13.30;7.25;;;-1.70;58.50;;;;;;5070875;28;20196;-83
2022/03/09 05:28:00;;;;;;;9.95;7.47;;;0.60;61.30;;;;;;5071008;28;20196;-83
2022/03/09 05:30:28;;;;;;;13.30;9.05;;;;;;;;;;5071470;28;20257;-83
2022/03/09 05:32:56;;;;;;;8.30;7.15;;;-1.80;59.20;;;;;;5070387;28;20938;-83
2022/03/09 05:35:23;;;;;;;12.77;8.07;;;-1.80;59.60;;;;;;5070706;28;20239;-83
2022/03/09 05:37:50;;;;;;;16.83;8.70;;;-1.70;78.00;;;;;;5070886;28;20231;-83
2022/03/09 05:40:17;;;;;;;19.05;10.00;;;;;;;;;;5070265;28;20231;-83
2022/03/09 05:42:45;;;;;;;9.02;6.47;;;-1.80;58.80;;;;;;5070887;28;20282;-83
2022/03/09 05:45:12;;;;;;;10.63;8.32;;;;;;;;;;5070417;28;20232;-83
2022/03/09 05:47:39;;;;;;;13.75;8.00;;;-1.80;58.90;;;;;;5070958;28;20291;-83
2022/03/09 05:50:09;;;;;;;12.95;8.57;;;-1.70;59.20;;;;;;5070525;28;20867;-83
2022/03/09 05:52:36;;;;;;;11.30;8.70;;;-1.50;70.00;;;;;;5070583;28;20664;-83
2022/03/09 05:55:03;;;;;;;10.82;8.68;;;-1.70;58.90;;;;;;5068681;28;20272;-83
2022/03/09 05:57:30;;;;;;;12.65;9.20;;;;;;;;;;5070478;28;20246;-83
2022/03/09 05:59:57;;;;;;;16.95;9.52;;;-1.60;58.40;;;;;;5070176;28;20211;-83
2022/03/09 06:02:24;;;;;;;10.63;7.32;;;-1.50;78.00;;;;;;5070326;28;20203;-83
2022/03/09 06:04:51;;;;;;;11.63;9.13;;;;;;;;;;5067426;28;20211;-83
2022/03/09 06:07:20;;;;;;;15.93;12.70;;;-1.50;78.60;;;;;;5063407;28;20251;-83
2022/03/09 06:09:49;;;;;;;18.75;11.45;;;;;;;;;;5067579;28;20580;-85
2022/03/09 06:12:16;;;;;;;15.15;9.98;;;;;;;;;;5068732;28;20195;-85
2022/03/09 06:14:43;;;;;;;14.88;8.68;;;-1.70;58.80;;;;;;5069879;28;20229;-85
2022/03/09 06:17:10;;;;;;;12.05;9.55;;;-1.60;59.20;;;;;;5065649;28;20660;-85
2022/03/09 06:19:38;;;;;;;12.02;9.20;;;;;;;;;;5069562;28;20542;-85
2022/03/09 06:22:05;;;;;;;11.30;8.38;;;-1.50;58.90;;;;;;5069719;28;20288;-85
2022/03/09 06:24:33;;;;;;;12.90;9.32;;;-1.50;78.40;;;;;;5069680;28;21203;-85
2022/03/09 06:27:00;;;;;;;26.10;11.52;;;;;;;;;;5068886;28;20616;-85
2022/03/09 06:29:27;;;;;;;18.73;11.60;;;-1.40;69.00;;;;;;5064326;28;21008;-85
2022/03/09 06:31:55;;;;;;;13.52;9.38;;;;;;;;;;5069383;28;21215;-85
2022/03/09 06:34:22;;;;;;;25.85;10.35;;;;;;;;;;5069255;28;20674;-85
2022/03/09 06:36:51;;;;;;;16.38;9.80;;;;;;;;;;5069148;28;20294;-85
2022/03/09 06:39:19;;;;;;;22.10;9.02;;;;;;;;;;5069241;28;20278;-85
2022/03/09 06:41:48;;;;;;;13.68;9.25;;;-1.20;58.70;;;;;;5069119;28;20245;-85
2022/03/09 06:44:15;;;;;;;21.73;8.40;;;-0.90;59.50;;;;;;5069381;28;20260;-85
2022/03/09 06:46:43;;;;;;;14.38;8.30;;;;;;;;;;5069033;28;20291;-85
2022/03/09 06:49:10;;;;;;;29.52;12.02;;;;;;;;;;5069663;28;20207;-85
2022/03/09 06:51:38;;;;;;;25.73;9.50;;;;;;;;;;5067579;28;20203;-84
2022/03/09 06:54:05;;;;;;;10.35;8.60;;;;;;;;;;5062936;28;20223;-85
2022/03/09 06:56:32;;;;;;;18.77;9.18;;;-0.80;58.20;;;;;;5056467;28;20704;-85
2022/03/09 06:59:03;;;;;;;11.70;7.65;;;-0.70;58.30;;;;;;5058500;28;20212;-85
2022/03/09 07:01:30;;;;;;;14.35;8.90;;;-0.60;77.30;;;;;;5053658;28;20644;-85
2022/03/09 07:03:58;;;;;;;15.80;8.75;;;;;;;;;;5066736;28;20617;-86
2022/03/09 07:06:36;;;;;;;16.73;9.90;;;-0.40;76.90;;;;;;5068573;28;20223;-86
2022/03/09 07:09:06;;;;;;;17.10;9.95;;;-0.30;58.40;;;;;;5069063;28;20256;-86
2022/03/09 07:11:33;;;;;;;15.00;8.43;;;;;;;;;;5069066;28;20257;-86
2022/03/09 07:14:01;;;;;;;13.15;10.23;;;;;;;;;;5068886;28;20191;-86
2022/03/09 07:16:29;;;;;;;15.43;9.45;;;-0.10;58.30;;;;;;5068015;28;21059;-87
2022/03/09 07:18:56;;;;;;;10.57;7.13;;;;;;;;;;5068007;28;20207;-85
2022/03/09 07:21:23;;;;;;;13.68;9.48;;;0.10;57.90;;;;;;5068933;28;20249;-87
2022/03/09 07:23:50;;;;;;;17.95;9.38;;;0.30;75.60;;;;;;5069306;28;20207;-86
2022/03/09 07:26:17;;;;;;;13.00;8.40;;;;;;;;;;5064883;28;20736;-86
2022/03/09 07:28:45;;;;;;;12.90;8.25;;;0.50;57.80;;;;;;5070001;28;20207;-86
2022/03/09 07:31:12;;;;;;;12.90;9.23;;;;;;;;;;5067713;28;20207;-86
2022/03/09 07:33:41;;;;;;;14.05;8.40;;;0.80;56.90;;;;;;5065483;28;20231;-86
2022/03/09 07:36:08;;;;;;;22.20;9.65;;;;;;;;;;5066691;28;20231;-86
2022/03/09 07:38:38;;;;;;;11.82;7.75;;;1.10;56.90;;;;;;5067046;28;20207;-86
2022/03/09 07:41:05;;;;;;;15.02;8.27;;;;;;;;;;5067650;28;20496;-86
2022/03/09 07:43:32;;;;;;;13.75;9.43;;;;;;;;;;5067964;28;20200;-86
2022/03/09 07:46:00;;;;;;;13.80;8.65;;;;;;;;;;5068127;28;20203;-86
2022/03/09 07:48:28;;;;;;;15.50;10.02;;;1.10;54.80;;;;;;5061994;28;20230;-86
2022/03/09 07:50:56;;;;;;;12.00;8.65;;;1.20;54.90;;;;;;5068610;28;20203;-86
2022/03/09 07:53:23;;;;;;;12.85;9.50;;;;;;;;;;5068120;28;20604;-87
2022/03/09 07:55:51;;;;;;;11.50;9.20;;;;;;;;;;5068499;28;20230;-87
2022/03/09 07:58:19;;;;;;;18.20;10.05;;;2.00;54.40;;;;;;5068078;28;20312;-86
2022/03/09 08:00:47;;;;;;;15.18;9.15;;;;;;;;;;5067012;28;20207;-88
2022/03/09 08:03:16;;;;;;;14.00;9.90;;;2.20;54.40;;;;;;5062576;28;20207;-87
2022/03/09 08:05:44;;;;;;;18.38;9.13;;;;;;;;;;5064119;28;20584;-88
2022/03/09 08:08:12;;;;;;;16.45;9.75;;;2.20;53.60;;;;;;5068874;28;20260;-87
2022/03/09 08:10:40;;;;;;;21.35;9.25;;;3.40;55.90;;;;;;5068180;28;20256;-87
2022/03/09 08:13:07;;;;;;;11.98;8.57;;;;;;;;;;5069160;28;20208;-87
2022/03/09 08:15:35;;;;;;;11.30;8.00;;;2.70;59.30;;;;;;5068952;28;20207;-88
2022/03/09 08:18:02;;;;;;;12.13;7.35;;;;;;;;;;5068621;28;20227;-87
2022/03/09 08:20:30;;;;;;;12.13;8.57;;;2.80;52.90;;;;;;5068960;28;20294;-87
2022/03/09 08:22:57;;;;;;;12.68;8.55;;;;;;;;;;5068181;28;20207;-88
2022/03/09 08:25:26;;;;;;;23.05;9.30;;;2.90;52.70;;;;;;5066958;28;20205;-87
2022/03/09 08:27:54;;;;;;;11.65;8.88;;;;;;;;;;5069002;28;20214;-87
2022/03/09 08:30:21;;;;;;;12.30;7.55;;;;;;;;;;5068702;28;20242;-88
2022/03/09 08:32:48;;;;;;;12.40;8.48;;;;;;;;;;5069259;28;20289;-89
2022/03/09 08:35:15;;;;;;;13.80;8.05;;;3.40;65.20;;;;;;5048494;28;20218;-88
2022/03/09 08:37:42;;;;;;;13.07;8.98;;;3.20;66.10;;;;;;5063095;28;20704;-87
2022/03/09 08:40:11;;;;;;;13.07;8.82;;;2.40;51.70;;;;;;5062792;28;20203;-87
2022/03/09 08:42:39;;;;;;;11.05;8.68;;;3.50;51.60;;;;;;5048930;28;20732;-88
2022/03/09 08:45:07;;;;;;;13.48;9.40;;;;;;;;;;5068706;28;20199;-89
2022/03/09 08:47:34;;;;;;;11.45;8.98;;;;;;;;;;5063289;28;20223;-88
2022/03/09 08:50:01;;;;;;;12.77;8.10;;;3.80;63.90;;;;;;5068121;28;20213;-87
2022/03/09 08:52:29;;;;;;;11.90;7.80;;;;;;;;;;5068404;28;20289;-87
2022/03/09 08:54:56;;;;;;;11.98;8.98;;;;;;;;;;5071852;28;20214;-87
2022/03/09 08:57:23;;;;;;;15.48;9.35;;;;;;;;;;5072310;28;20226;-89
2022/03/09 08:59:57;;;;;;;15.68;9.38;;;4.40;51.00;;;;;;5071247;28;20225;-88
2022/03/09 09:02:24;;;;;;;14.95;10.48;;;;;;;;;;5071237;28;20866;-88
2022/03/09 09:04:51;;;;;;;14.05;9.75;;;;;;;;;;5071996;28;20724;-88
2022/03/09 09:07:18;;;;;;;16.92;9.77;;;4.40;60.80;;;;;;5072116;28;20203;-88
2022/03/09 09:09:46;;;;;;;11.98;9.88;;;;;;;;;;5072873;28;20211;-87
2022/03/09 09:12:13;;;;;;;11.82;9.75;;;;;;;;;;5071876;28;20570;-86
2022/03/09 09:14:40;;;;;;;14.07;10.00;;;;;;;;;;5070069;28;21079;-88
2022/03/09 09:17:09;;;;;;;19.55;9.55;;;4.90;50.60;;;;;;5071360;28;20215;-87
2022/03/09 09:19:36;;;;;;;10.88;8.68;;;;;;;;;;5071517;28;20191;-88
2022/03/09 09:22:04;;;;;;;10.02;7.95;;;;;;;;;;5071507;28;20253;-89
2022/03/09 09:24:31;;;;;;;14.50;9.05;;;;;;;;;;5071912;28;20221;-88
2022/03/09 09:26:58;;;;;;;13.65;9.38;;;5.20;49.10;;;;;;5071714;28;20212;-88
2022/03/09 09:29:26;;;;;;;11.55;9.00;;;;;;;;;;5071757;28;20203;-88
2022/03/09 09:31:56;;;;;;;15.68;8.82;;;5.60;48.70;;;;;;5072402;28;20203;-87
2022/03/09 09:34:25;;;;;;;15.38;8.93;;;6.80;50.50;;;;;;5070996;28;20215;-87
2022/03/09 09:36:52;;;;;;;12.85;8.95;;;6.70;50.90;;;;;;5070834;28;20234;-88
2022/03/09 09:39:20;;;;;;;13.68;8.85;;;5.70;49.40;;;;;;5070430;28;20298;-87
2022/03/09 09:41:51;;;;;;;13.48;9.07;;;4.30;48.10;;;;;;5062579;28;20231;-87
2022/03/09 09:44:23;;;;;;;15.45;8.98;;;6.40;48.80;;;;;;5065161;28;20227;-88
2022/03/09 09:46:50;;;;;;;14.77;9.10;;;;;;;;;;5050126;28;20657;-87
2022/03/09 09:49:23;;;;;;;17.38;10.05;;;6.40;58.20;;;;;;5056687;28;20223;-87
2022/03/09 09:51:54;;;;;;;12.18;8.20;;;6.30;47.20;;;;;;5069320;28;20563;-88
2022/03/09 09:54:23;;;;;;;13.15;8.75;;;6.50;46.90;;;;;;5068805;28;20215;-87
2022/03/09 09:56:50;;;;;;;12.45;9.80;;;6.60;46.90;;;;;;5052388;28;20208;-87
2022/03/09 09:59:17;;;;;;;15.45;10.55;;;6.60;58.30;;;;;;5061288;28;20210;-87
2022/03/09 10:01:44;;;;;;;11.27;8.20;;;6.50;47.00;;;;;;5069330;28;20625;-88
2022/03/09 10:04:11;;;;;;;10.90;9.00;;;6.80;46.70;;;;;;5067596;28;20233;-88
2022/03/09 10:06:38;;;;;;;14.93;9.98;;;6.90;46.30;;;;;;5068783;28;20210;-88
2022/03/09 10:09:08;;;;;;;12.82;9.02;;;7.00;46.50;;;;;;5070414;28;20305;-88
2022/03/09 10:11:46;;;;;;;11.77;9.10;;;7.20;45.90;;;;;;5070237;28;20534;-88
2022/03/09 10:14:13;;;;;;;14.10;9.32;;;9.40;46.20;;;;;;5069991;28;20755;-88
2022/03/09 10:17:01;;;;;;;12.70;9.30;;;7.20;43.80;;;;;;5069919;28;20239;-87
2022/03/09 10:19:32;;;;;;;13.30;9.13;;;7.20;44.20;;;;;;5070161;28;20595;-87
2022/03/09 10:21:59;;;;;;;12.25;9.18;;;7.40;43.60;;;;;;5070281;28;20203;-87
2022/03/09 10:24:58;;;;;;;11.30;9.57;;;7.40;43.80;;;;;;5069342;28;20359;-88
2022/03/09 10:28:03;;;;;;;12.52;9.52;;;9.50;45.60;;;;;;5047509;28;20212;-88
2022/03/09 10:30:40;;;;;;;12.07;8.75;;;7.60;43.50;;;;;;5060112;28;20685;-89
2022/03/09 10:33:10;;;;;;;14.77;10.30;;;7.50;54.80;;;;;;5067818;28;20222;-87
2022/03/09 10:35:45;;;;;;;12.60;9.10;;;7.70;42.90;;;;;;5059276;28;20222;-89
2022/03/09 10:41:39;;;;;;;12.45;10.27;;;7.70;43.50;;;;;;5066970;28;20663;-87
2022/03/09 10:44:21;;;;;;;18.23;10.70;;;7.40;55.40;;;;;;5064341;28;20238;-86
2022/03/09 10:46:52;;;;;;;14.52;10.43;;;7.50;48.30;;;;;;5060083;28;20215;-87
2022/03/09 10:49:23;;;;;;;13.45;10.35;;;7.70;43.10;;;;;;5069094;28;20238;-88
2022/03/09 10:52:16;;;;;;;15.70;10.32;;;7.70;43.80;;;;;;5056678;28;20208;-87
2022/03/09 10:54:43;;;;;;;18.42;10.30;;;8.60;54.30;;;;;;5061360;28;20257;-88
2022/03/09 10:57:13;;;;;;;13.00;10.13;;;8.10;42.30;;;;;;5060569;28;20316;-88
2022/03/09 11:00:00;;;;;;;14.38;10.65;;;7.90;48.80;;;;;;5068464;28;20257;-87
2022/03/09 11:05:20;;;;;;;14.68;11.35;;;8.10;43.70;;;;;;5063015;28;20314;-86
2022/03/09 11:08:03;;;;;;;16.70;10.52;;;8.30;44.50;;;;;;5069787;28;20200;-86
2022/03/09 11:10:50;;;;;;;15.38;10.35;;;8.30;43.40;;;;;;5069946;28;20286;-87
2022/03/09 11:16:01;;;;;;;18.20;10.50;;;8.50;43.60;;;;;;5061464;28;20246;-86
2022/03/09 11:18:32;;;;;;;13.43;10.55;;;8.50;54.00;;;;;;5067623;28;20301;-88
2022/03/09 11:21:02;;;;;;;14.68;11.60;;;8.70;44.20;;;;;;5068709;28;20671;-88
2022/03/09 11:23:31;;;;;;;17.10;11.02;;;8.30;42.70;;;;;;5068925;28;20210;-89
2022/03/09 11:26:01;;;;;;;15.00;10.43;;;9.20;44.10;;;;;;5065812;28;20608;-88
2022/03/09 11:28:31;;;;;;;14.15;10.68;;;8.50;42.70;;;;;;5068305;28;20667;-87
2022/03/09 11:31:00;;;;;;;12.45;10.18;;;8.90;43.30;;;;;;5063302;28;20695;-87
2022/03/09 11:33:48;;;;;;;15.75;10.77;;;8.40;42.80;;;;;;5063264;28;20192;-87
2022/03/09 11:36:36;;;;;;;16.77;11.65;;;8.40;42.60;;;;;;5055565;28;20572;-88
2022/03/09 11:39:22;;;;;;;14.55;10.15;;;8.20;41.10;;;;;;5067810;28;20702;-87
2022/03/09 11:41:49;;;;;;;17.38;12.68;;;8.40;47.20;;;;;;5048687;28;21298;-88
2022/03/09 11:44:30;;;;;;;15.75;11.63;;;8.30;42.80;;;;;;5066543;28;20204;-88
2022/03/09 11:47:03;;;;;;;16.58;12.48;;;8.50;43.60;;;;;;5058325;28;20217;-88
2022/03/09 11:49:34;;;;;;;17.17;11.73;;;8.60;43.90;;;;;;5045139;28;20229;-87
2022/03/09 11:52:09;;;;;;;17.42;11.90;;;9.00;43.40;;;;;;5068241;28;20209;-87
2022/03/09 11:54:47;;;;;;;16.60;12.60;;;8.70;42.50;;;;;;5067955;28;20290;-88
2022/03/09 11:57:15;;;;;;;17.10;11.48;;;10.00;42.50;;;;;;5066356;28;20199;-87
2022/03/09 12:00:09;;;;;;;18.58;13.20;;;8.80;42.90;;;;;;5067342;28;21052;-88
2022/03/09 12:02:41;;;;;;;23.08;12.88;;;8.70;42.90;;;;;;5066945;28;20207;-88
2022/03/09 12:05:10;;;;;;;17.67;11.02;;;8.70;43.40;;;;;;5067413;28;20197;-88
2022/03/09 12:07:50;;;;;;;18.13;12.27;;;8.70;43.40;;;;;;5067751;28;20210;-88
2022/03/09 12:10:19;;;;;;;19.98;13.10;;;8.70;43.50;;;;;;5053916;28;20271;-88
2022/03/09 12:13:37;;;;;;;18.08;11.60;;;8.70;46.70;;;;;;5067836;28;20272;-89
2022/03/09 12:16:16;;;;;;;17.47;11.97;;;8.90;42.00;;;;;;4984855;28;20213;-88
2022/03/09 12:18:46;;;;;;;18.63;12.57;;;8.80;42.70;;;;;;4985906;28;20673;-89
2022/03/09 12:21:15;;;;;;;18.67;13.03;;;9.00;42.00;;;;;;5039810;28;20692;-87
2022/03/09 12:24:21;;;;;;;18.50;11.97;;;9.00;42.30;;;;;;5067969;28;20626;-88
2022/03/09 12:26:50;;;;;;;15.60;11.47;;;9.00;40.80;;;;;;4978813;28;20714;-88
2022/03/09 12:29:41;;;;;;;14.43;11.50;;;9.10;51.30;;;;;;5048420;28;20651;-88
2022/03/09 12:32:13;;;;;;;16.00;12.00;;;9.10;40.30;;;;;;5032245;28;20667;-89
2022/03/09 12:34:42;;;;;;;19.20;13.17;;;9.30;39.60;;;;;;5063231;28;20650;-89
2022/03/09 12:37:11;;;;;;;16.27;11.97;;;9.30;39.10;;;;;;5067356;28;20616;-88
2022/03/09 12:39:39;;;;;;;18.53;12.63;;;;;;;;;;5066291;28;20733;-88
2022/03/09 12:42:07;;;;;;;20.50;11.90;;;9.20;39.10;;;;;;5067493;28;20608;-88
2022/03/09 12:44:37;;;;;;;14.43;11.00;;;9.40;47.70;;;;;;5066158;28;20720;-88
2022/03/09 12:47:06;;;;;;;15.90;11.13;;;9.40;38.00;;;;;;5067331;28;20610;-87
2022/03/09 12:49:37;;;;;;;16.03;10.50;;;9.40;36.70;;;;;;5062834;28;21229;-89
2022/03/09 12:52:08;;;;;;;19.67;12.43;;;9.30;47.50;;;;;;5067203;28;20678;-88
2022/03/09 12:54:43;;;;;;;16.73;11.43;;;9.40;38.20;;;;;;5064950;28;20642;-89
2022/03/09 12:57:13;;;;;;;14.03;10.83;;;9.50;38.30;;;;;;5059270;28;20666;-90
2022/03/09 12:59:42;;;;;;;14.60;9.70;;;9.50;38.80;;;;;;5066602;28;21021;-89
2022/03/09 13:02:09;;;;;;;17.27;12.03;;;9.60;39.10;;;;;;5066506;28;20713;-89
2022/03/09 13:04:37;;;;;;;14.50;9.87;;;9.70;42.20;;;;;;5065433;28;20632;-89
2022/03/09 13:07:15;;;;;;;12.93;10.23;;;9.80;45.40;;;;;;5066234;28;20640;-89
2022/03/09 13:09:44;;;;;;;14.47;10.87;;;9.70;37.00;;;;;;5066985;28;21182;-89
2022/03/09 13:12:13;;;;;;;15.00;10.87;;;9.90;37.50;;;;;;5067307;28;20639;-89
2022/03/09 13:14:43;;;;;;;15.90;10.90;;;9.80;38.60;;;;;;5067699;28;20632;-89
2022/03/09 13:17:11;;;;;;;14.53;10.70;;;9.90;38.30;;;;;;5066088;28;20628;-89
2022/03/09 13:19:40;;;;;;;14.93;11.13;;;9.90;39.40;;;;;;5067053;28;20714;-89
2022/03/09 13:22:08;;;;;;;15.20;10.07;;;;;;;;;;5066898;28;20681;-89
2022/03/09 13:24:35;;;;;;;15.67;10.97;;;9.90;36.00;;;;;;5067015;28;20624;-89
2022/03/09 13:27:16;;;;;;;19.20;10.20;;;9.90;36.60;;;;;;5066205;28;20643;-89